createdAt,value
2018-05-18T00:00:39.979Z,22.85
2018-05-18T00:03:17.344Z,31.95
2018-05-18T00:05:54.901Z,25.70
2018-05-18T00:08:31.694Z,27.08
2018-05-18T00:11:09.572Z,23.90
2018-05-18T00:13:46.769Z,29.20
2018-05-18T00:16:24.052Z,27.48
2018-05-18T00:19:00.727Z,28.35
2018-05-18T00:21:37.427Z,23.42
2018-05-18T00:24:13.725Z,29.98
2018-05-18T00:26:50.733Z,20.35
2018-05-18T00:29:28.785Z,28.05
2018-05-18T00:32:05.674Z,29.45
2018-05-18T00:34:44.445Z,30.65
2018-05-18T00:37:21.440Z,27.08
2018-05-18T00:39:59.377Z,29.70
2018-05-18T00:42:37.414Z,34.05
2018-05-18T00:45:15.381Z,28.48
2018-05-18T00:47:51.655Z,27.02
2018-05-18T00:50:28.459Z,22.42
2018-05-18T00:53:05.174Z,25.58
2018-05-18T00:55:42.383Z,26.12
2018-05-18T00:58:19.110Z,30.98
2018-05-18T01:00:55.901Z,20.23
2018-05-18T01:03:33.072Z,26.00
2018-05-18T01:06:09.725Z,28.75
2018-05-18T01:08:46.535Z,29.17
2018-05-18T01:11:23.698Z,30.75
2018-05-18T01:14:00.686Z,26.98
2018-05-18T01:16:38.176Z,29.00
2018-05-18T01:19:15.387Z,29.17
2018-05-18T01:21:52.263Z,27.05
2018-05-18T01:24:29.225Z,26.52
2018-05-18T01:27:05.281Z,30.00
2018-05-18T01:29:41.955Z,28.33
2018-05-18T01:32:19.035Z,28.80
2018-05-18T01:34:56.535Z,28.45
2018-05-18T01:37:32.988Z,27.50
2018-05-18T01:40:10.907Z,30.05
2018-05-18T01:42:47.772Z,27.45
2018-05-18T01:45:25.675Z,31.60
2018-05-18T01:48:02.387Z,30.75
2018-05-18T01:50:40.522Z,28.15
2018-05-18T01:53:19.058Z,33.63
2018-05-18T01:55:56.369Z,26.35
2018-05-18T01:58:32.501Z,29.30
2018-05-18T02:01:10.331Z,29.92
2018-05-18T02:03:47.631Z,34.83
2018-05-18T02:06:24.218Z,34.50
2018-05-18T02:09:02.500Z,27.15
2018-05-18T02:11:40.444Z,29.45
2018-05-18T02:14:18.644Z,33.35
2018-05-18T02:16:56.101Z,32.03
2018-05-18T02:19:32.860Z,31.15
2018-05-18T02:22:09.847Z,38.65
2018-05-18T02:24:46.465Z,33.50
2018-05-18T02:27:22.969Z,31.10
2018-05-18T02:30:01.324Z,34.45
2018-05-18T02:32:38.282Z,29.80
2018-05-18T02:35:14.829Z,34.08
2018-05-18T02:37:53.393Z,34.70
2018-05-18T02:40:30.246Z,29.75
2018-05-18T02:43:06.561Z,30.62
2018-05-18T02:45:42.827Z,30.67
2018-05-18T02:48:19.064Z,29.45
2018-05-18T02:53:35.754Z,32.03
2018-05-18T02:56:14.011Z,31.42
2018-05-18T02:58:51.232Z,32.35
2018-05-18T03:01:29.034Z,39.90
2018-05-18T03:04:06.398Z,33.20
2018-05-18T03:06:43.331Z,36.13
2018-05-18T03:09:20.069Z,39.53
2018-05-18T03:11:56.870Z,32.28
2018-05-18T03:14:35.125Z,33.78
2018-05-18T03:17:11.945Z,32.83
2018-05-18T03:19:48.920Z,37.55
2018-05-18T03:22:25.626Z,36.70
2018-05-18T03:25:02.286Z,41.03
2018-05-18T03:27:38.973Z,38.85
2018-05-18T03:30:17.356Z,36.17
2018-05-18T03:32:54.297Z,37.38
2018-05-18T03:35:31.144Z,36.88
2018-05-18T03:38:07.787Z,37.05
2018-05-18T03:40:44.426Z,40.03
2018-05-18T03:43:22.591Z,40.67
2018-05-18T03:46:00.557Z,41.15
2018-05-18T03:48:36.699Z,36.50
2018-05-18T03:51:13.883Z,37.80
2018-05-18T03:53:52.706Z,39.03
2018-05-18T03:56:29.132Z,42.10
2018-05-18T03:59:07.084Z,37.25
2018-05-18T04:02:00.979Z,42.22
2018-05-18T04:04:55.266Z,39.33
2018-05-18T04:07:49.455Z,40.45
2018-05-18T04:10:29.099Z,37.78
2018-05-18T04:13:06.880Z,41.45
2018-05-18T04:15:44.055Z,42.92
2018-05-18T04:18:21.912Z,38.22
2018-05-18T04:20:58.890Z,41.22
2018-05-18T04:23:36.009Z,36.75
2018-05-18T04:26:12.580Z,41.08
2018-05-18T04:28:51.073Z,41.88
2018-05-18T04:31:28.137Z,39.97
2018-05-18T04:34:06.738Z,39.55
2018-05-18T04:36:43.365Z,38.30
2018-05-18T04:39:21.916Z,39.45
2018-05-18T04:41:59.335Z,37.15
2018-05-18T04:44:36.158Z,39.28
2018-05-18T04:47:12.851Z,40.45
2018-05-18T04:49:49.860Z,38.40
2018-05-18T04:52:27.096Z,36.00
2018-05-18T04:55:04.080Z,34.88
2018-05-18T04:57:41.366Z,35.83
2018-05-18T05:00:18.041Z,30.67
2018-05-18T05:02:54.699Z,38.53
2018-05-18T05:05:32.248Z,37.47
2018-05-18T05:08:10.110Z,41.33
2018-05-18T05:10:46.876Z,35.15
2018-05-18T05:13:23.862Z,38.13
2018-05-18T05:16:01.913Z,34.35
2018-05-18T05:18:39.054Z,39.17
2018-05-18T05:21:16.029Z,34.50
2018-05-18T05:23:53.427Z,39.05
2018-05-18T05:26:30.314Z,35.70
2018-05-18T05:29:07.128Z,34.97
2018-05-18T05:31:44.142Z,34.22
2018-05-18T05:34:21.561Z,33.42
2018-05-18T05:36:59.137Z,33.17
2018-05-18T05:39:37.349Z,34.63
2018-05-18T05:42:14.093Z,36.53
2018-05-18T05:44:52.845Z,29.80
2018-05-18T05:47:31.681Z,37.80
2018-05-18T05:50:08.532Z,35.17
2018-05-18T05:52:46.128Z,34.03
2018-05-18T05:55:22.906Z,33.42
2018-05-18T05:57:59.593Z,32.75
2018-05-18T06:00:36.601Z,38.08
2018-05-18T06:03:13.875Z,35.58
2018-05-18T06:05:50.825Z,25.85
2018-05-18T06:08:28.116Z,31.23
2018-05-18T06:11:04.949Z,34.05
2018-05-18T06:13:43.119Z,27.87
2018-05-18T06:16:19.647Z,31.08
2018-05-18T06:18:57.901Z,30.58
2018-05-18T06:21:36.101Z,30.90
2018-05-18T06:24:12.762Z,34.45
2018-05-18T06:26:49.469Z,28.73
2018-05-18T06:29:27.332Z,29.58
2018-05-18T06:32:04.281Z,26.98
2018-05-18T06:34:42.257Z,29.70
2018-05-18T06:37:20.129Z,32.65
2018-05-18T06:39:56.896Z,25.15
2018-05-18T06:42:34.012Z,27.45
2018-05-18T06:45:11.370Z,27.65
2018-05-18T06:47:49.240Z,26.15
2018-05-18T06:50:27.106Z,22.83
2018-05-18T06:53:05.570Z,30.88
2018-05-18T06:55:42.325Z,26.27
2018-05-18T06:58:19.325Z,28.60
2018-05-18T07:00:55.886Z,26.87
2018-05-18T07:03:32.852Z,24.52
2018-05-18T07:06:10.304Z,30.30
2018-05-18T07:08:48.325Z,34.35
2018-05-18T07:11:24.820Z,25.37
2018-05-18T07:14:02.723Z,28.50
2018-05-18T07:16:39.485Z,29.90
2018-05-18T07:19:16.169Z,27.50
2018-05-18T07:21:52.884Z,26.52
2018-05-18T07:24:30.360Z,30.85
2018-05-18T07:27:07.325Z,26.20
2018-05-18T07:29:44.014Z,28.17
2018-05-18T07:32:20.992Z,32.35
2018-05-18T07:34:58.089Z,24.05
2018-05-18T07:37:37.336Z,28.20
2018-05-18T07:40:15.608Z,28.17
2018-05-18T07:42:53.601Z,28.92
2018-05-18T07:45:31.986Z,23.95
2018-05-18T07:48:09.298Z,22.95
2018-05-18T07:50:47.113Z,27.17
2018-05-18T07:53:24.605Z,24.55
2018-05-18T07:56:02.103Z,22.90
2018-05-18T07:58:38.529Z,19.65
2018-05-18T08:01:16.057Z,16.42
2018-05-18T08:03:52.738Z,20.98
2018-05-18T08:06:30.643Z,18.10
2018-05-18T08:09:06.394Z,20.00
2018-05-18T08:11:44.432Z,17.80
2018-05-18T08:14:22.610Z,22.87
2018-05-18T08:17:00.717Z,17.97
2018-05-18T08:19:37.787Z,20.25
2018-05-18T08:22:16.477Z,22.67
2018-05-18T08:24:55.350Z,19.95
2018-05-18T08:27:32.891Z,22.25
2018-05-18T08:30:10.281Z,21.77
2018-05-18T08:32:48.401Z,16.65
2018-05-18T08:35:27.697Z,23.73
2018-05-18T08:38:04.847Z,27.10
2018-05-18T08:40:41.360Z,20.48
2018-05-18T08:43:19.728Z,27.02
2018-05-18T08:45:57.158Z,24.63
2018-05-18T08:48:34.706Z,31.10
2018-05-18T08:51:11.583Z,23.73
2018-05-18T08:53:50.107Z,30.30
2018-05-18T08:56:27.420Z,28.85
2018-05-18T08:59:04.428Z,29.80
2018-05-18T09:01:41.402Z,26.20
2018-05-18T09:04:18.396Z,32.30
2018-05-18T09:06:55.090Z,37.08
2018-05-18T09:09:32.988Z,38.87
2018-05-18T09:12:09.268Z,38.77
2018-05-18T09:14:45.664Z,44.83
2018-05-18T09:17:22.617Z,42.40
2018-05-18T09:20:00.549Z,38.70
2018-05-18T09:22:37.194Z,38.20
2018-05-18T09:25:14.481Z,39.30
2018-05-18T09:27:51.763Z,42.27
2018-05-18T09:30:29.695Z,45.90
2018-05-18T09:33:07.018Z,46.90
2018-05-18T09:35:43.565Z,37.33
2018-05-18T09:38:21.176Z,44.10
2018-05-18T09:40:58.987Z,37.17
2018-05-18T09:43:35.694Z,36.63
2018-05-18T09:46:12.246Z,41.53
2018-05-18T09:48:49.556Z,38.23
2018-05-18T09:51:27.657Z,34.90
2018-05-18T09:54:04.688Z,35.00
2018-05-18T09:56:42.875Z,33.43
2018-05-18T09:59:20.814Z,32.73
2018-05-18T10:01:57.212Z,32.67
2018-05-18T10:04:35.308Z,37.30
2018-05-18T10:07:11.688Z,36.47
2018-05-18T10:09:48.706Z,40.63
2018-05-18T10:12:26.042Z,39.23
2018-05-18T10:15:03.756Z,43.37
2018-05-18T10:17:40.885Z,41.17
2018-05-18T10:20:18.445Z,45.37
2018-05-18T10:22:55.718Z,43.40
2018-05-18T10:25:32.077Z,40.93
2018-05-18T10:28:09.666Z,43.23
2018-05-18T10:30:46.983Z,38.10
2018-05-18T10:33:23.992Z,40.47
2018-05-18T10:36:00.826Z,39.03
2018-05-18T10:38:37.000Z,36.80
2018-05-18T10:41:12.894Z,44.47
2018-05-18T10:43:49.838Z,42.53
2018-05-18T10:46:26.086Z,42.40
2018-05-18T10:49:03.824Z,40.93
2018-05-18T10:51:42.165Z,38.60
2018-05-18T10:54:20.384Z,42.70
2018-05-18T10:56:57.075Z,42.03
2018-05-18T10:59:34.085Z,43.10
2018-05-18T11:02:11.151Z,43.63
2018-05-18T11:04:49.308Z,48.23
2018-05-18T11:07:26.209Z,44.00
2018-05-18T11:10:03.500Z,48.80
2018-05-18T11:12:40.467Z,41.17
2018-05-18T11:15:17.776Z,45.13
2018-05-18T11:17:55.717Z,37.90
2018-05-18T11:20:32.981Z,36.07
2018-05-18T11:23:09.944Z,34.43
2018-05-18T11:25:46.909Z,37.63
2018-05-18T11:28:25.152Z,43.80
2018-05-18T11:31:02.422Z,36.10
2018-05-18T11:33:40.433Z,36.70
2018-05-18T11:36:17.901Z,39.00
2018-05-18T11:38:54.905Z,37.97
2018-05-18T11:41:31.141Z,40.10
2018-05-18T11:44:07.993Z,40.30
2018-05-18T11:46:46.138Z,35.00
2018-05-18T11:49:23.416Z,34.87
2018-05-18T11:52:00.708Z,38.23
2018-05-18T11:54:37.389Z,41.70
2018-05-18T11:57:15.475Z,43.00
2018-05-18T11:59:51.974Z,34.67
2018-05-18T12:02:29.021Z,39.10
2018-05-18T12:05:05.892Z,37.17
2018-05-18T12:07:44.246Z,37.93
2018-05-18T12:10:20.994Z,37.23
2018-05-18T12:12:57.874Z,35.37
2018-05-18T12:15:33.797Z,37.00
2018-05-18T12:18:10.743Z,38.93
2018-05-18T12:20:46.994Z,38.97
2018-05-18T12:23:24.156Z,37.60
2018-05-18T12:26:02.392Z,33.93
2018-05-18T12:28:39.306Z,40.40
2018-05-18T12:31:15.716Z,34.57
2018-05-18T12:33:51.900Z,40.27
2018-05-18T12:36:28.436Z,36.57
2018-05-18T12:39:03.688Z,33.40
2018-05-18T12:41:39.942Z,40.83
2018-05-18T12:44:16.930Z,36.47
2018-05-18T12:46:55.256Z,35.47
2018-05-18T12:49:32.721Z,34.20
2018-05-18T12:52:09.694Z,30.53
2018-05-18T12:54:47.601Z,28.53
2018-05-18T12:57:25.801Z,27.90
2018-05-18T13:00:03.031Z,29.30
2018-05-18T13:02:40.176Z,29.50
2018-05-18T13:05:18.904Z,37.10
2018-05-18T13:07:56.293Z,34.17
2018-05-18T13:10:33.495Z,34.53
2018-05-18T13:13:10.152Z,38.20
2018-05-18T13:15:47.447Z,39.37
2018-05-18T13:18:25.645Z,41.27
2018-05-18T13:21:03.436Z,34.93
2018-05-18T13:23:41.145Z,42.50
2018-05-18T13:26:18.107Z,38.23
2018-05-18T13:28:55.090Z,43.50
2018-05-18T13:31:33.920Z,38.80
2018-05-18T13:34:10.281Z,37.47
2018-05-18T13:36:47.001Z,48.83
2018-05-18T13:39:23.973Z,41.63
2018-05-18T13:42:02.865Z,35.43
2018-05-18T13:44:39.910Z,34.83
2018-05-18T13:47:16.217Z,37.13
2018-05-18T13:49:54.614Z,36.83
2018-05-18T13:52:31.349Z,44.63
2018-05-18T13:55:09.484Z,39.07
2018-05-18T13:57:45.871Z,42.60
2018-05-18T14:00:23.773Z,37.47
2018-05-18T14:03:00.504Z,39.63
2018-05-18T14:05:38.381Z,47.37
2018-05-18T14:08:15.941Z,41.53
2018-05-18T14:10:53.729Z,34.90
2018-05-18T14:13:31.545Z,35.80
2018-05-18T14:16:08.733Z,37.23
2018-05-18T14:18:46.618Z,33.07
2018-05-18T14:21:23.940Z,38.53
2018-05-18T14:24:01.954Z,35.50
2018-05-18T14:26:39.777Z,39.53
2018-05-18T14:29:16.756Z,44.27
2018-05-18T14:31:55.299Z,37.70
2018-05-18T14:34:31.569Z,40.93
2018-05-18T14:37:08.564Z,44.87
2018-05-18T14:39:45.524Z,44.50
2018-05-18T14:42:22.330Z,46.33
2018-05-18T14:45:00.105Z,42.83
2018-05-18T14:47:37.129Z,43.87
2018-05-18T14:50:14.160Z,42.20
2018-05-18T14:52:51.971Z,41.60
2018-05-18T14:55:28.851Z,43.60
2018-05-18T14:58:06.513Z,49.80
2018-05-18T15:00:44.493Z,42.90
2018-05-18T15:03:22.969Z,46.57
2018-05-18T15:06:00.269Z,41.40
2018-05-18T15:08:37.246Z,44.57
2018-05-18T15:11:14.964Z,42.90
2018-05-18T15:13:52.483Z,42.47
2018-05-18T15:16:30.628Z,42.47
2018-05-18T15:19:08.152Z,45.03
2018-05-18T15:21:45.782Z,46.33
2018-05-18T15:24:23.351Z,46.37
2018-05-18T15:27:01.022Z,45.30
2018-05-18T15:29:37.970Z,47.37
2018-05-18T15:32:15.140Z,38.53
2018-05-18T15:34:53.770Z,37.20
2018-05-18T15:37:32.121Z,41.60
2018-05-18T15:40:10.046Z,35.60
2018-05-18T15:42:48.072Z,35.20
2018-05-18T15:45:26.602Z,35.07
2018-05-18T15:48:03.832Z,30.07
2018-05-18T15:50:41.801Z,32.20
2018-05-18T15:53:19.419Z,26.90
2018-05-18T15:55:55.757Z,34.67
2018-05-18T15:58:32.288Z,31.27
2018-05-18T16:01:09.216Z,28.47
2018-05-18T16:03:46.378Z,29.73
2018-05-18T16:06:24.097Z,29.00
2018-05-18T16:09:01.954Z,28.30
2018-05-18T16:11:39.200Z,27.87
2018-05-18T16:14:15.179Z,27.83
2018-05-18T16:16:53.139Z,32.60
2018-05-18T16:19:29.819Z,32.17
2018-05-18T16:22:07.718Z,29.93
2018-05-18T16:24:44.369Z,35.60
2018-05-18T16:27:20.693Z,30.80
2018-05-18T16:29:58.368Z,30.30
2018-05-18T16:32:35.322Z,28.37
2018-05-18T16:35:12.630Z,24.10
2018-05-18T16:37:50.046Z,25.62
2018-05-18T16:40:27.780Z,23.70
2018-05-18T16:43:03.989Z,26.77
2018-05-18T16:45:42.053Z,27.43
2018-05-18T16:48:18.868Z,23.00
2018-05-18T16:50:55.180Z,25.10
2018-05-18T16:53:32.691Z,22.33
2018-05-18T16:56:11.309Z,23.45
2018-05-18T16:58:47.861Z,28.33
2018-05-18T17:01:24.542Z,23.73
2018-05-18T17:04:01.414Z,23.62
2018-05-18T17:06:37.705Z,25.80
2018-05-18T17:09:14.380Z,26.40
2018-05-18T17:11:51.851Z,28.03
2018-05-18T17:14:28.682Z,25.73
2018-05-18T17:17:05.620Z,25.12
2018-05-18T17:19:43.856Z,22.95
2018-05-18T17:22:20.185Z,26.17
2018-05-18T17:24:56.885Z,23.97
2018-05-18T17:27:33.428Z,28.40
2018-05-18T17:30:09.851Z,17.63
2018-05-18T17:32:47.071Z,21.93
2018-05-18T17:35:25.277Z,21.60
2018-05-18T17:38:02.993Z,25.23
2018-05-18T17:40:39.829Z,36.93
2018-05-18T17:43:17.143Z,24.35
2018-05-18T17:45:55.597Z,23.75
2018-05-18T17:48:32.629Z,21.12
2018-05-18T17:51:11.145Z,25.10
2018-05-18T17:53:48.433Z,25.37
2018-05-18T17:56:26.581Z,25.23
2018-05-18T17:59:04.853Z,21.05
2018-05-18T18:01:41.835Z,19.87
2018-05-18T18:04:19.157Z,19.02
2018-05-18T18:06:56.965Z,24.25
2018-05-18T18:09:34.329Z,21.98
2018-05-18T18:12:11.234Z,26.48
2018-05-18T18:14:49.804Z,22.08
2018-05-18T18:17:26.744Z,23.48
2018-05-18T18:20:04.622Z,19.12
2018-05-18T18:22:41.397Z,24.95
2018-05-18T18:25:18.792Z,23.80
2018-05-18T18:27:57.185Z,27.50
2018-05-18T18:30:34.179Z,24.85
2018-05-18T18:33:10.812Z,20.45
2018-05-18T18:35:49.025Z,22.40
2018-05-18T18:38:27.337Z,24.33
2018-05-18T18:41:04.846Z,19.80
2018-05-18T18:43:41.777Z,19.52
2018-05-18T18:46:18.733Z,23.52
2018-05-18T18:48:57.312Z,20.33
2018-05-18T18:51:34.962Z,20.15
2018-05-18T18:54:11.637Z,25.88
2018-05-18T18:56:49.454Z,24.48
2018-05-18T18:59:26.005Z,23.08
2018-05-18T19:02:03.924Z,21.87
2018-05-18T19:04:41.003Z,20.88
2018-05-18T19:07:18.913Z,24.33
2018-05-18T19:09:56.215Z,20.80
2018-05-18T19:12:32.878Z,24.37
2018-05-18T19:15:10.177Z,23.12
2018-05-18T19:17:47.745Z,21.58
2018-05-18T19:20:25.133Z,23.83
2018-05-18T19:23:02.742Z,22.52
2018-05-18T19:25:39.630Z,22.17
2018-05-18T19:28:18.436Z,26.50
2018-05-18T19:30:55.122Z,20.05
2018-05-18T19:33:31.877Z,21.75
2018-05-18T19:36:08.641Z,19.15
2018-05-18T19:38:46.109Z,21.50
2018-05-18T19:41:23.457Z,20.02
2018-05-18T19:44:00.593Z,20.92
2018-05-18T19:46:39.393Z,21.35
2018-05-18T19:49:16.054Z,22.15
2018-05-18T19:51:53.106Z,23.15
2018-05-18T19:54:30.035Z,23.77
2018-05-18T19:57:09.209Z,23.08
2018-05-18T19:59:46.505Z,25.77
2018-05-18T20:02:23.782Z,23.00
2018-05-18T20:05:01.069Z,22.83
2018-05-18T20:07:38.100Z,24.12
2018-05-18T20:10:16.895Z,22.25
2018-05-18T20:12:55.289Z,21.77
2018-05-18T20:15:33.649Z,21.40
2018-05-18T20:18:11.784Z,24.27
2018-05-18T20:20:49.385Z,24.20
2018-05-18T20:23:27.290Z,20.70
2018-05-18T20:26:04.257Z,22.73
2018-05-18T20:28:43.215Z,29.23
2018-05-18T20:31:20.366Z,26.40
2018-05-18T20:33:57.402Z,22.50
2018-05-18T20:36:35.208Z,25.45
2018-05-18T20:39:12.225Z,24.17
2018-05-18T20:41:48.762Z,26.37
2018-05-18T20:44:25.816Z,29.08
2018-05-18T20:47:03.188Z,20.12
2018-05-18T20:49:40.813Z,23.05
2018-05-18T20:52:17.437Z,23.48
2018-05-18T20:54:55.277Z,24.05
2018-05-18T20:57:31.845Z,25.27
2018-05-18T21:00:10.352Z,27.50
2018-05-18T21:02:46.758Z,25.10
2018-05-18T21:05:24.218Z,26.10
2018-05-18T21:08:01.235Z,20.40
2018-05-18T21:10:39.043Z,23.38
2018-05-18T21:13:15.123Z,22.55
2018-05-18T21:15:51.661Z,21.62
2018-05-18T21:18:29.597Z,23.27
2018-05-18T21:21:06.925Z,22.95
2018-05-18T21:23:43.506Z,21.92
2018-05-18T21:26:20.340Z,20.85
2018-05-18T21:28:57.141Z,21.52
2018-05-18T21:31:35.207Z,23.20
2018-05-18T21:34:12.511Z,26.87
2018-05-18T21:36:50.108Z,20.40
2018-05-18T21:39:26.907Z,23.45
2018-05-18T21:42:03.762Z,24.80
2018-05-18T21:44:40.446Z,24.42
2018-05-18T21:47:18.022Z,24.20
2018-05-18T21:49:55.310Z,25.52
2018-05-18T21:52:32.608Z,21.33
2018-05-18T21:55:09.886Z,22.85
2018-05-18T21:57:47.489Z,25.80
2018-05-18T22:00:25.132Z,23.08
2018-05-18T22:03:02.071Z,25.50
2018-05-18T22:05:38.877Z,22.98
2018-05-18T22:08:15.148Z,22.60
2018-05-18T22:10:52.282Z,21.00
2018-05-18T22:13:30.477Z,22.15
2018-05-18T22:16:06.948Z,25.45
2018-05-18T22:18:43.947Z,24.15
2018-05-18T22:21:22.249Z,23.98
2018-05-18T22:23:59.113Z,25.70
2018-05-18T22:26:36.217Z,26.87
2018-05-18T22:29:12.386Z,24.00
2018-05-18T22:31:50.375Z,24.60
2018-05-18T22:34:27.355Z,20.52
2018-05-18T22:37:04.145Z,23.85
2018-05-18T22:39:40.995Z,20.15
2018-05-18T22:42:18.518Z,22.55
2018-05-18T22:44:56.869Z,23.55
2018-05-18T22:47:34.064Z,24.20
2018-05-18T22:50:10.437Z,25.58
2018-05-18T22:52:46.997Z,27.13
2018-05-18T22:55:24.705Z,25.00
2018-05-18T22:58:02.310Z,26.65
2018-05-18T23:00:39.016Z,25.60
2018-05-18T23:03:16.588Z,22.80
2018-05-18T23:05:53.889Z,21.08
2018-05-18T23:08:31.132Z,23.02
2018-05-18T23:11:09.532Z,25.80
2018-05-18T23:13:46.322Z,25.95
2018-05-18T23:16:23.633Z,22.87
2018-05-18T23:19:00.601Z,21.58
2018-05-18T23:21:39.137Z,23.73
2018-05-18T23:24:16.107Z,20.95
2018-05-18T23:26:53.077Z,23.62
2018-05-18T23:29:31.405Z,19.33
2018-05-18T23:32:09.301Z,24.25
2018-05-18T23:34:46.483Z,22.45
2018-05-18T23:37:23.155Z,29.20
2018-05-18T23:40:00.889Z,22.15
2018-05-18T23:42:38.018Z,22.52
2018-05-18T23:45:15.021Z,24.10
2018-05-18T23:47:51.674Z,22.75
2018-05-18T23:50:28.836Z,23.58
2018-05-18T23:53:05.636Z,21.60
2018-05-18T23:55:44.016Z,23.70
2018-05-18T23:58:21.905Z,23.83
